Latest Weather Observations for Lockhart River

IDQ60801

Issued at 4:02 am EST Friday 19 December 2014 (issued every 30 minutes, with the page automatically refreshed every 10 minutes)

About weather observations | Map of weather stations | Latest weather observations for QLD | Other Formats
Station Details ID: 028008 Name: LOCKHART RIVER AIRPORT Lat: -12.79 Lon: 143.30 Height: 18.5 m
Data from the previous 72 hours. | See also: Recent months at Lockhart River
Date/Time
EST
Temp
°C
App
Temp
°C
Dew
Point
Rel
Hum
%
Delta-T
°C
Wind Press
QNH
hPa
Press
MSL
hPa
Rain
since 9 am
mm
Dir
 
Spd
km/h
Gust
km/h
Spd
kts
Gust
kts
19/04:00am 24.3 29.6 23.1 93 0.8 CALM 0 0 0 0 1010.0 - 0.2
19/03:30am 24.6 30.1 23.4 93 0.8 CALM 0 6 0 3 1010.2 - 0.2
19/03:00am 24.8 30.0 23.6 93 0.8 E 2 6 1 3 1010.5 1010.4 0.2
19/02:30am 24.6 29.7 23.4 93 0.8 SSE 2 6 1 3 1010.6 - 0.2
19/02:00am 24.8 29.9 23.4 92 1.0 N 2 6 1 3 1010.6 - 0.2
19/01:30am 25.0 30.2 23.6 92 1.0 N 2 6 1 3 1010.5 - 0.2
19/01:00am 24.9 29.2 23.3 91 1.1 WNW 6 7 3 4 1010.4 - 0.2
19/12:30am 25.4 30.6 23.6 90 1.2 WNW 2 6 1 3 1010.5 - 0.2
19/12:00am 25.4 30.6 23.6 90 1.2 N 2 7 1 4 1010.6 1010.5 0.2
 
Date/Time
EST
Temp
°C
App
Temp
°C
Dew
Point
Rel
Hum
%
Delta-T
°C
Wind Press
QNH
hPa
Press
MSL
hPa
Rain
since 9 am
mm
Dir
 
Spd
km/h
Gust
km/h
Spd
kts
Gust
kts
18/11:30pm 25.7 31.4 23.7 89 1.4 CALM 0 0 0 0 1010.7 - 0.2
18/11:00pm 25.8 31.5 23.7 88 1.4 CALM 0 4 0 2 1010.7 - 0.2
18/10:30pm 25.6 31.2 23.6 89 1.4 CALM 0 0 0 0 1010.6 - 0.2
18/10:00pm 25.6 30.1 23.6 89 1.4 NNW 6 9 3 5 1010.0 - 0.2
18/09:30pm 26.0 30.5 23.7 87 1.6 WNW 6 7 3 4 1009.7 - 0.2
18/09:00pm 26.5 32.2 23.8 85 1.9 CALM 0 0 0 0 1009.3 1009.2 0.2
18/08:30pm 26.8 32.5 23.7 83 2.1 CALM 0 0 0 0 1009.1 - 0.2
18/08:00pm 27.4 32.3 23.6 80 2.6 E 4 9 2 5 1009.1 - 0.2
18/07:30pm 27.9 33.1 23.5 77 3.0 ENE 2 7 1 4 1009.2 - 0.2
18/07:00pm 28.2 32.3 23.3 75 3.4 NE 7 11 4 6 1008.8 - 0.2
18/06:30pm 28.6 32.2 23.7 75 3.4 NE 11 19 6 10 1008.7 - 0.2
18/06:00pm 29.0 32.3 23.9 74 3.5 ENE 13 19 7 10 1008.5 1008.4 0.2
18/05:30pm 29.2 31.9 24.1 74 3.5 ENE 17 22 9 12 1008.5 - 0.2
18/05:00pm 29.1 31.6 23.8 73 3.7 E 17 24 9 13 1008.7 - 0.2
18/04:30pm 29.9 33.0 24.1 71 4.0 E 15 22 8 12 1008.5 - 0.2
18/04:00pm 30.0 32.2 23.9 70 4.2 E 19 28 10 15 1008.4 - 0.2
18/03:30pm 30.2 31.9 23.4 67 4.7 E 20 28 11 15 1008.4 - 0.2
18/03:00pm 31.3 33.8 24.4 66 4.8 E 19 24 10 13 1008.4 1008.3 0.2
18/02:30pm 31.0 33.6 23.9 66 4.9 E 17 28 9 15 1008.7 - 0.2
18/02:00pm 31.4 33.7 24.5 67 4.8 E 20 30 11 16 1009.0 - 0.2
18/01:30pm 31.4 33.9 24.8 68 4.6 E 20 30 11 16 1009.2 - 0.2
18/01:00pm 31.2 33.7 24.8 69 4.5 E 20 32 11 17 1009.6 - 0.2
18/12:30pm 31.2 33.4 24.8 69 4.5 E 22 30 12 16 1009.9 - 0.2
18/12:00pm 31.6 34.6 25.2 69 4.5 E 19 26 10 14 1010.1 1010.0 0.2
18/11:30am 31.6 35.0 25.9 72 4.1 E 19 28 10 15 1010.3 - 0.2
18/11:00am 31.1 34.6 25.4 71 4.0 ENE 17 22 9 12 1010.6 - 0.2
18/10:30am 29.9 34.5 25.9 79 2.8 ENE 13 19 7 10 1010.9 - 0.2
18/10:00am 29.7 34.1 25.0 76 3.3 E 11 13 6 7 1011.0 - 0.0
18/09:30am 28.7 33.6 24.7 79 2.8 ESE 7 9 4 5 1011.1 - 0.0
18/09:00am 27.3 32.9 25.7 91 1.1 ENE 7 11 4 6 1011.2 1011.1 2.4
18/08:30am 26.9 33.7 25.5 92 1.0 CALM 0 4 0 2 1011.3 - 2.4
18/08:07am 26.6 32.3 25.6 94 0.7 NNW 6 9 3 5 1011.2 - 2.4
18/08:00am 26.7 33.3 25.8 95 0.6 WSW 2 6 1 3 1011.2 - 2.4
18/07:30am 26.0 31.9 25.3 96 0.5 NW 4 6 2 3 1011.1 - 2.4
18/07:22am 25.9 32.1 25.2 96 0.5 WNW 2 6 1 3 1011.0 - 2.4
18/07:00am 25.9 32.1 25.2 96 0.5 N 2 7 1 4 1010.7 - 2.4
18/06:43am 25.7 32.2 25.0 96 0.5 CALM 0 0 0 0 1010.4 - 2.4
18/06:33am 25.6 32.0 24.9 96 0.5 CALM 0 0 0 0 1010.4 - 2.4
18/06:30am 25.7 32.2 25.0 96 0.5 CALM 0 0 0 0 1010.3 - 2.4
18/06:00am 25.7 32.2 25.0 96 0.5 CALM 0 0 0 0 1009.9 1009.8 2.4
18/05:30am 25.8 31.1 24.9 95 0.6 ENE 6 9 3 5 1009.6 - 2.2
18/05:00am 25.5 31.6 24.5 94 0.7 CALM 0 0 0 0 1009.4 - 0.0
18/04:30am 25.7 31.2 24.7 94 0.7 NW 4 7 2 4 1009.1 - 0.0
18/04:00am 25.6 31.7 24.4 93 0.8 CALM 0 0 0 0 1009.0 - 0.0
18/03:38am 25.7 31.5 24.5 93 0.8 NW 2 6 1 3 1008.9 - 0.0
18/03:30am 25.8 30.9 24.6 93 0.8 WNW 6 7 3 4 1008.8 - 0.0
18/03:05am 25.7 31.5 24.5 93 0.8 N 2 6 1 3 1008.7 - 0.0
18/03:00am 25.7 31.1 24.5 93 0.8 N 4 7 2 4 1008.7 1008.6 0.0
18/02:30am 25.9 32.0 24.5 92 1.0 CALM 0 0 0 0 1008.8 - 0.0
18/02:07am 25.8 31.9 24.4 92 1.0 CALM 0 2 0 1 1008.6 - 0.0
18/02:00am 25.8 31.5 24.4 92 1.0 W 2 7 1 4 1008.5 - 0.0
18/01:40am 25.8 31.5 24.4 92 1.0 W 2 6 1 3 1008.7 - 0.0
18/01:30am 25.8 31.5 24.4 92 1.0 NW 2 7 1 4 1008.8 - 0.0
18/01:00am 25.8 31.9 24.4 92 1.0 CALM 0 0 0 0 1009.0 - 0.0
18/12:30am 26.0 31.5 24.6 92 1.0 W 4 7 2 4 1009.1 - 0.0
18/12:00am 25.9 30.9 24.5 92 1.0 N 6 7 3 4 1009.3 1009.2 0.0
 
Date/Time
EST
Temp
°C
App
Temp
°C
Dew
Point
Rel
Hum
%
Delta-T
°C
Wind Press
QNH
hPa
Press
MSL
hPa
Rain
since 9 am
mm
Dir
 
Spd
km/h
Gust
km/h
Spd
kts
Gust
kts
17/11:30pm 26.3 32.6 24.7 91 1.1 CALM 0 0 0 0 1009.2 - 0.0
17/11:00pm 26.5 32.0 24.7 90 1.3 NW 4 6 2 3 1009.0 - 0.0
17/10:30pm 26.6 32.4 24.6 89 1.4 NNW 2 6 1 3 1009.0 - 0.0
17/10:04pm 26.7 32.6 24.7 89 1.4 NNW 2 7 1 4 1009.0 - 0.0
17/10:00pm 26.9 33.3 24.9 89 1.4 CALM 0 0 0 0 1009.0 - 0.0
17/09:30pm 27.4 33.7 24.8 86 1.8 CALM 0 6 0 3 1008.8 - 0.0
17/09:06pm 27.4 33.7 24.8 86 1.8 CALM 0 0 0 0 1008.6 - 0.0
17/09:00pm 27.4 33.7 24.8 86 1.8 CALM 0 0 0 0 1008.7 1008.6 0.0
17/08:30pm 27.5 33.8 24.7 85 1.9 CALM 0 0 0 0 1008.1 - 0.0
17/08:00pm 27.8 34.0 24.6 83 2.2 CALM 0 0 0 0 1008.0 - 0.0
17/07:30pm 28.3 33.8 24.7 81 2.5 NNW 4 6 2 3 1007.9 - 0.0
17/07:00pm 28.7 33.6 24.7 79 2.8 N 7 11 4 6 1007.4 - 0.0
17/06:30pm 29.2 34.3 24.7 77 3.1 ENE 6 9 3 5 1007.3 - 0.0
17/06:00pm 29.4 33.5 24.5 75 3.4 ENE 11 13 6 7 1006.6 1006.5 0.0
17/05:30pm 30.1 34.2 24.5 72 3.9 ENE 11 17 6 9 1006.5 - 0.0
17/05:00pm 30.9 34.2 24.5 68 4.5 ENE 15 20 8 11 1006.4 - 0.0
17/04:30pm 31.3 34.4 24.2 66 5.0 ENE 15 24 8 13 1006.1 - 0.0
17/04:00pm 31.9 34.6 24.2 63 5.4 ENE 17 28 9 15 1006.1 - 0.0
17/03:30pm 32.0 34.3 24.1 63 5.5 E 19 28 10 15 1006.2 - 0.0
17/03:00pm 32.7 34.7 23.9 60 6.1 E 20 28 11 15 1006.5 1006.4 0.0
17/02:30pm 32.8 34.8 24.0 60 6.1 E 20 30 11 16 1006.8 - 0.0
17/02:00pm 32.8 34.8 24.0 60 6.1 E 20 28 11 15 1007.3 - 0.0
17/01:30pm 33.4 35.6 24.0 58 6.6 E 19 33 10 18 1007.9 - 0.0
17/01:00pm 33.7 35.6 23.7 56 7.0 E 20 30 11 16 1008.1 - 0.0
17/12:30pm 33.1 35.3 24.0 59 6.4 E 19 28 10 15 1008.5 - 0.0
17/12:00pm 33.4 35.6 24.0 58 6.6 E 19 26 10 14 1008.7 1008.6 0.0
17/11:30am 33.3 36.1 23.6 56 6.7 ENE 15 22 8 12 1008.9 - 0.0
17/11:00am 32.8 36.2 24.0 60 6.1 E 13 20 7 11 1009.2 - 0.0
17/10:30am 31.3 36.4 24.7 68 4.6 W 6 11 3 6 1009.4 - 0.0
17/10:00am 30.7 35.6 24.4 69 4.4 N 6 9 3 5 1009.5 - 0.0
17/09:30am 29.9 34.8 24.3 72 3.9 NNW 6 9 3 5 1009.5 - 0.0
17/09:07am 29.8 35.9 25.1 76 3.3 WSW 2 7 1 4 1009.4 - 0.0
17/09:00am 29.7 36.2 25.0 76 3.3 CALM 0 0 0 0 1009.5 1009.4 0.0
17/08:41am 29.5 35.0 25.3 78 3.0 NW 6 9 3 5 1009.6 - 0.0
17/08:35am 29.3 34.6 25.3 79 2.8 WSW 7 9 4 5 1009.6 - 0.0
17/08:30am 29.1 34.4 25.3 80 2.7 WSW 7 9 4 5 1009.5 - 0.0
17/08:09am 28.8 34.2 25.4 82 2.4 W 7 9 4 5 1009.4 - 0.0
17/08:00am 28.3 33.6 25.3 84 2.1 W 7 9 4 5 1009.3 - 0.0
17/07:30am 27.2 32.6 25.4 90 1.3 NW 7 7 4 4 1009.0 - 0.0
17/07:00am 25.6 31.9 24.7 95 0.6 CALM 0 0 0 0 1008.8 - 0.0
17/06:30am 24.5 30.3 24.0 97 0.3 CALM 0 0 0 0 1008.5 - 0.0
17/06:00am 24.3 29.3 23.8 97 0.3 WNW 4 7 2 4 1008.3 1008.2 0.0
17/05:52am 24.3 29.3 23.8 97 0.3 WNW 4 7 2 4 1008.0 - 0.0
17/05:30am 24.6 30.5 24.1 97 0.3 CALM 0 0 0 0 1007.6 - 0.0
17/05:00am 24.7 30.7 24.2 97 0.3 CALM 0 0 0 0 1007.3 - 0.0
17/04:30am 25.0 31.0 24.3 96 0.5 CALM 0 0 0 0 1007.1 - 0.0
17/04:00am 25.0 30.3 24.3 96 0.5 NW 4 6 2 3 1007.1 - 0.0
17/03:30am 25.2 31.2 24.3 95 0.6 CALM 0 6 0 3 1007.0 - 0.0
17/03:00am 25.5 31.7 24.6 95 0.6 CALM 0 0 0 0 1006.8 1006.7 0.0
17/02:30am 25.6 31.9 24.7 95 0.6 CALM 0 0 0 0 1006.9 - 0.0
17/02:00am 25.6 31.1 24.7 95 0.6 NNW 4 7 2 4 1007.4 - 0.0
17/01:30am 26.0 32.5 25.0 94 0.7 CALM 0 0 0 0 1007.7 - 0.0
17/01:00am 26.0 31.7 25.0 94 0.7 NW 4 7 2 4 1008.0 - 0.0
17/12:30am 26.4 33.0 25.2 93 0.8 CALM 0 0 0 0 1008.1 - 0.0
17/12:00am 26.6 33.3 25.4 93 0.8 CALM 0 0 0 0 1008.3 1008.2 0.0
 
Date/Time
EST
Temp
°C
App
Temp
°C
Dew
Point
Rel
Hum
%
Delta-T
°C
Wind Press
QNH
hPa
Press
MSL
hPa
Rain
since 9 am
mm
Dir
 
Spd
km/h
Gust
km/h
Spd
kts
Gust
kts
16/11:30pm 26.6 33.3 25.4 93 0.8 CALM 0 0 0 0 1008.5 - 0.0
16/11:07pm 26.7 33.1 25.5 93 0.8 NW 2 7 1 4 1008.7 - 0.0
16/11:00pm 26.7 33.5 25.5 93 0.8 CALM 0 0 0 0 1008.7 - 0.0
16/10:56pm 26.7 33.1 25.5 93 0.8 NNW 2 6 1 3 1008.8 - 0.0
16/10:30pm 26.8 32.3 25.6 93 0.8 WNW 7 9 4 5 1008.7 - 0.0
16/10:00pm 27.2 33.3 25.6 91 1.1 NNW 4 7 2 4 1008.7 - 0.0
16/09:30pm 27.3 34.1 25.5 90 1.3 CALM 0 6 0 3 1008.7 - 0.0
16/09:00pm 27.8 34.6 25.6 88 1.6 CALM 0 0 0 0 1008.5 1008.4 0.0
16/08:30pm 28.1 34.1 25.5 86 1.8 NE 4 7 2 4 1008.4 - 0.0
16/08:00pm 28.3 34.8 25.7 86 1.8 NNE 2 7 1 4 1008.1 - 0.0
16/07:30pm 28.5 34.3 25.7 85 2.0 N 6 9 3 5 1007.9 - 0.0
16/07:00pm 28.7 34.5 25.7 84 2.1 NNE 6 9 3 5 1007.6 - 0.0
16/06:30pm 29.0 34.5 25.6 82 2.4 ENE 7 11 4 6 1007.5 - 0.0
16/06:00pm 29.5 34.3 25.7 80 2.7 E 11 19 6 10 1007.2 1007.1 0.0
16/05:30pm 30.7 35.2 25.8 75 3.5 ENE 13 20 7 11 1007.1 - 0.0
16/05:00pm 30.3 33.6 25.1 73 3.7 ENE 17 24 9 13 1006.7 - 0.0
16/04:30pm 31.6 34.2 25.5 70 4.3 ENE 22 32 12 17 1006.2 - 0.0
16/04:00pm 32.4 34.9 24.7 64 5.4 E 20 30 11 16 1006.3 - 0.0
16/03:30pm 32.3 35.4 25.4 67 4.9 E 19 26 10 14 1006.4 - 0.0
16/03:00pm 32.6 35.4 25.2 65 5.3 ENE 20 28 11 15 1006.7 1006.6 0.0
16/02:30pm 33.1 36.3 25.9 66 5.1 E 20 24 11 13 1006.9 - 0.0
16/02:00pm 32.1 33.9 24.2 63 5.5 ENE 22 30 12 16 1007.6 - 0.0
16/01:30pm 33.2 36.1 24.4 60 6.2 E 17 24 9 13 1007.9 - 0.0
16/01:00pm 33.2 36.3 24.1 59 6.4 E 15 22 8 12 1008.2 - 0.0
16/12:30pm 32.9 35.8 23.2 56 6.7 ENE 13 20 7 11 1008.5 - 0.0
16/12:00pm 32.7 35.3 23.3 57 6.5 ESE 15 24 8 13 1008.8 1008.7 0.0
16/11:30am 32.2 36.0 24.0 62 5.7 ESE 11 19 6 10 1009.2 - 0.0
16/11:00am 31.4 36.2 24.5 67 4.8 ESE 7 19 4 10 1009.7 - 0.0
16/10:30am 31.5 36.4 24.4 66 5.0 ESE 6 11 3 6 1009.8 - 0.0
16/10:00am 31.4 35.7 24.3 66 5.0 ESE 9 13 5 7 1010.1 - 0.0
16/09:30am 31.0 35.2 24.1 66 4.8 ESE 9 15 5 8 1010.3 - 0.0
16/09:00am 30.4 35.0 24.1 69 4.4 E 7 11 4 6 1010.3 1010.2 1.2
16/08:30am 29.0 34.1 22.7 69 4.3 CALM 0 0 0 0 1010.5 - 1.0
16/08:00am 27.0 32.4 23.3 80 2.5 CALM 0 4 0 2 1010.3 - 1.0
16/07:30am 25.3 29.2 23.0 87 1.6 WNW 7 9 4 5 1010.1 - 1.0
16/07:00am 23.9 28.0 22.9 94 0.7 WNW 6 9 3 5 1009.8 - 1.0
16/06:30am 22.8 27.6 22.1 96 0.5 CALM 0 0 0 0 1009.5 - 1.0
16/06:00am 22.4 27.0 21.7 96 0.5 CALM 0 0 0 0 1008.9 1008.8 1.0
16/05:30am 22.7 27.4 22.0 96 0.5 CALM 0 0 0 0 1008.3 - 1.0
16/05:00am 22.7 27.4 22.0 96 0.5 CALM 0 0 0 0 1008.2 - 1.0
16/04:30am 22.7 27.4 22.0 96 0.5 CALM 0 0 0 0 1008.0 - 1.0

Other Formats:

Comma delimited format used in spreadsheet applications
http://www.bom.gov.au/fwo/IDQ60801/IDQ60801.94186.axf

JavaScript Object Notation format (JSON) in row-major order
http://www.bom.gov.au/fwo/IDQ60801/IDQ60801.94186.json